Time;durP1;ratioP1;P1;durP2;ratioP2;P2;SDS_P1;SDS_P2;PMS_P1;PMS_P2;Temp;Humidity;BMP_temperature;BMP_pressure;BME280_temperature;BME280_humidity;BME280_pressure;Samples;Min_cycle;Max_cycle;Signal;HPM_P1;HPM_P2
2023/03/26 00:00:27;;;;;;;29.65;13.65;;;;;;;;;;4829445;29;20046;-82
2023/03/26 00:03:16;;;;;;;31.15;14.05;;;;;;;;;;4798736;29;20496;-80
2023/03/26 00:06:15;;;;;;;18.75;10.50;;;;;;;;;;4829518;29;20046;-81
2023/03/26 00:09:00;;;;;;;16.02;9.65;;;;;;;;;;4829777;29;20045;-82
2023/03/26 00:11:45;;;;;;;16.13;9.00;;;;;;;;;;4804310;29;20059;-82
2023/03/26 00:14:31;;;;;;;14.43;8.85;;;;;;;;;;4829483;29;20046;-82
2023/03/26 00:17:17;;;;;;;18.30;10.02;;;;;;;;;;4829733;29;20049;-82
2023/03/26 00:20:03;;;;;;;17.15;10.18;;;;;;;;;;4811908;29;20063;-81
2023/03/26 00:22:49;;;;;;;19.67;11.20;;;;;;;;;;4812590;29;20054;-82
2023/03/26 00:25:38;;;;;;;15.90;10.10;;;;;;;;;;4831800;29;20050;-82
2023/03/26 00:28:25;;;;;;;16.92;10.32;;;;;;;;;;4816104;29;20054;-82
2023/03/26 00:31:12;;;;;;;17.80;10.68;;;;;;;;;;4824863;29;20050;-82
2023/03/26 00:34:01;;;;;;;32.17;14.32;;;;;;;;;;4813103;29;20046;-82
2023/03/26 00:36:53;;;;;;;29.25;15.02;;;;;;;;;;4825646;29;20050;-83
2023/03/26 00:39:38;;;;;;;27.40;15.55;;;;;;;;;;4812095;29;20046;-81
2023/03/26 00:42:25;;;;;;;32.92;16.95;;;;;;;;;;4815591;29;20042;-81
2023/03/26 00:45:11;;;;;;;34.00;18.75;;;;;;;;;;4832659;29;20038;-84
2023/03/26 00:47:56;;;;;;;25.05;15.88;;;;;;;;;;4802714;29;20055;-80
2023/03/26 00:50:45;;;;;;;22.42;13.73;;;;;;;;;;4815720;29;20046;-80
2023/03/26 00:53:32;;;;;;;21.30;13.18;;;;;;;;;;4808157;29;20050;-81
2023/03/26 00:56:17;;;;;;;20.15;12.68;;;;;;;;;;4814309;29;20038;-80
2023/03/26 00:59:03;;;;;;;23.75;14.98;;;;;;;;;;4815361;29;20054;-82
2023/03/26 01:01:48;;;;;;;25.15;16.60;;;;;;;;;;4807961;29;20043;-83
2023/03/26 01:04:36;;;;;;;32.45;19.48;;;;;;;;;;4807704;29;20054;-81
2023/03/26 01:07:27;;;;;;;27.30;17.08;;;;;;;;;;4815456;29;20050;-82
2023/03/26 01:10:13;;;;;;;25.95;16.77;;;;;;;;;;4801639;29;20054;-80
2023/03/26 01:12:58;;;;;;;26.77;16.48;;;;;;;;;;4815297;29;20047;-81
2023/03/26 01:15:48;;;;;;;21.73;13.93;;;;;;;;;;4801406;29;20058;-81
2023/03/26 01:18:39;;;;;;;12.50;9.05;;;;;;;;;;4815027;29;20042;-80
2023/03/26 01:21:28;;;;;;;13.95;9.98;;;;;;;;;;4807199;29;20059;-81
2023/03/26 01:24:14;;;;;;;14.90;9.77;;;;;;;;;;4815255;29;20042;-79
2023/03/26 01:27:08;;;;;;;15.75;9.80;;;;;;;;;;4826238;29;20054;-80
2023/03/26 01:30:10;;;;;;;19.75;11.88;;;;;;;;;;4814791;29;20062;-80
2023/03/26 01:33:12;;;;;;;12.90;6.93;;;;;;;;;;4814923;29;20050;-80
2023/03/26 01:36:05;;;;;;;5.20;3.67;;;;;;;;;;4814199;29;20054;-80
2023/03/26 01:39:06;;;;;;;3.80;3.00;;;;;;;;;;4800686;29;20039;-81
2023/03/26 01:42:15;;;;;;;3.53;2.67;;;;;;;;;;4807813;29;20042;-79
2023/03/26 01:45:30;;;;;;;3.85;2.83;;;;;;;;;;4825593;29;20054;-81
2023/03/26 01:48:16;;;;;;;3.47;2.85;;;;;;;;;;4815181;29;20047;-80
2023/03/26 01:51:03;;;;;;;4.53;2.70;;;;;;;;;;4800748;29;20047;-81
2023/03/26 01:53:48;;;;;;;3.75;2.67;;;;;;;;;;4800491;29;20047;-81
2023/03/26 01:56:56;;;;;;;3.72;2.78;;;;;;;;;;4831542;29;20050;-81
2023/03/26 01:59:47;;;;;;;3.30;2.47;;;;;;;;;;4814286;29;20054;-82
2023/03/26 02:02:53;;;;;;;14.95;6.38;;;;;;;;;;4823926;29;20049;-80
2023/03/26 02:05:49;;;;;;;18.73;8.05;;;;;;;;;;4823167;29;20054;-81
2023/03/26 02:08:41;;;;;;;29.95;11.00;;;;;;;;;;4817647;29;20065;-81
2023/03/26 02:11:26;;;;;;;34.53;11.70;;;;;;;;;;4805218;29;20046;-81
2023/03/26 02:14:13;;;;;;;55.08;19.05;;;;;;;;;;4812179;29;20493;-82
2023/03/26 02:16:58;;;;;;;24.27;10.80;;;;;;;;;;4805065;29;20042;-80
2023/03/26 02:19:46;;;;;;;13.63;6.68;;;;;;;;;;4817387;29;20046;-81
2023/03/26 02:22:39;;;;;;;11.02;4.60;;;;;;;;;;4806482;29;20046;-80
2023/03/26 02:25:29;;;;;;;5.75;3.55;;;;;;;;;;4812759;29;20485;-82
2023/03/26 02:28:16;;;;;;;4.28;3.03;;;;;;;;;;4806408;29;20058;-80
2023/03/26 02:31:02;;;;;;;3.03;2.58;;;;;;;;;;4811021;29;20050;-80
2023/03/26 02:33:48;;;;;;;3.40;2.78;;;;;;;;;;4805934;29;20046;-81
2023/03/26 02:36:35;;;;;;;3.90;3.00;;;;;;;;;;4823397;29;20054;-80
2023/03/26 02:39:22;;;;;;;4.80;3.20;;;;;;;;;;4810252;29;20042;-79
2023/03/26 02:42:15;;;;;;;5.38;3.42;;;;;;;;;;4822585;29;20046;-83
2023/03/26 02:45:06;;;;;;;7.13;4.88;;;;;;;;;;4805837;29;20484;-80
2023/03/26 02:48:07;;;;;;;6.72;4.10;;;;;;;;;;4827918;29;20054;-82
2023/03/26 02:51:06;;;;;;;6.75;4.55;;;;;;;;;;4822851;29;20484;-83
2023/03/26 02:54:17;;;;;;;6.35;4.20;;;;;;;;;;4822702;29;20057;-82
2023/03/26 02:57:30;;;;;;;9.98;6.10;;;;;;;;;;4806304;29;20047;-81
2023/03/26 03:00:38;;;;;;;8.23;5.57;;;;;;;;;;4822256;29;20055;-81
2023/03/26 03:03:46;;;;;;;6.10;4.13;;;;;;;;;;4808629;29;20508;-78
2023/03/26 03:06:46;;;;;;;6.72;4.07;;;;;;;;;;4794382;29;20489;-81
2023/03/26 03:09:33;;;;;;;7.00;4.25;;;;;;;;;;4835419;29;20424;-81
2023/03/26 03:12:39;;;;;;;6.43;4.40;;;;;;;;;;4813508;29;20062;-82
2023/03/26 03:15:24;;;;;;;15.52;6.57;;;;;;;;;;4799618;29;20054;-81
2023/03/26 03:18:09;;;;;;;10.57;6.38;;;;;;;;;;4822358;29;20054;-82
2023/03/26 03:20:54;;;;;;;10.07;4.30;;;;;;;;;;4822057;29;20050;-82
2023/03/26 03:23:40;;;;;;;6.50;3.92;;;;;;;;;;4830217;29;20054;-82
2023/03/26 03:26:29;;;;;;;6.22;3.47;;;;;;;;;;4805557;29;20072;-81
2023/03/26 03:29:18;;;;;;;4.55;2.90;;;;;;;;;;4805342;29;20404;-82
2023/03/26 03:32:04;;;;;;;3.70;2.53;;;;;;;;;;4804801;29;20505;-81
2023/03/26 03:34:58;;;;;;;3.75;2.80;;;;;;;;;;4805314;29;20500;-83
2023/03/26 03:37:43;;;;;;;4.05;3.00;;;;;;;;;;4822562;29;20054;-81
2023/03/26 03:40:28;;;;;;;3.97;2.50;;;;;;;;;;4822736;29;20051;-81
2023/03/26 03:43:14;;;;;;;2.83;2.20;;;;;;;;;;4805089;29;20050;-82
2023/03/26 03:46:14;;;;;;;2.67;1.75;;;;;;;;;;4803658;29;20042;-82
2023/03/26 03:49:07;;;;;;;3.88;2.30;;;;;;;;;;4804663;29;20058;-83
2023/03/26 03:51:56;;;;;;;3.20;2.50;;;;;;;;;;4798224;29;20077;-81
2023/03/26 03:54:50;;;;;;;3.50;1.75;;;;;;;;;;4804862;29;20046;-82
2023/03/26 03:58:02;;;;;;;1.98;1.70;;;;;;;;;;4835703;29;20404;-81
2023/03/26 04:00:51;;;;;;;2.30;1.73;;;;;;;;;;4804863;29;20042;-83
2023/03/26 04:03:56;;;;;;;2.03;1.50;;;;;;;;;;4817995;29;20058;-83
2023/03/26 04:06:47;;;;;;;1.65;1.42;;;;;;;;;;4805233;29;20050;-82
2023/03/26 04:09:34;;;;;;;2.20;1.85;;;;;;;;;;4804798;29;20508;-83
2023/03/26 04:12:29;;;;;;;10.82;4.90;;;;;;;;;;4821781;29;20050;-83
2023/03/26 04:15:18;;;;;;;11.65;5.07;;;;;;;;;;4804464;29;20054;-83
2023/03/26 04:18:09;;;;;;;14.10;6.63;;;;;;;;;;4803808;29;20050;-83
2023/03/26 04:20:55;;;;;;;17.00;7.18;;;;;;;;;;4805300;29;20058;-81
2023/03/26 04:23:45;;;;;;;13.95;7.13;;;;;;;;;;4807240;29;20046;-82
2023/03/26 04:26:41;;;;;;;11.00;7.38;;;;;;;;;;4817095;29;20058;-82
2023/03/26 04:29:41;;;;;;;25.45;10.38;;;;;;;;;;4823434;29;20054;-82
2023/03/26 04:32:32;;;;;;;30.42;11.82;;;;;;;;;;4818981;29;20050;-82
2023/03/26 04:35:18;;;;;;;20.17;10.02;;;;;;;;;;4815393;29;20050;-81
2023/03/26 04:38:10;;;;;;;15.57;9.38;;;;;;;;;;4797954;29;20408;-81
2023/03/26 04:41:00;;;;;;;10.90;7.40;;;;;;;;;;4814277;29;20046;-84
2023/03/26 04:43:55;;;;;;;10.50;7.38;;;;;;;;;;4803390;29;20497;-82
2023/03/26 04:46:54;;;;;;;17.50;9.05;;;;;;;;;;4812364;29;20054;-81
2023/03/26 04:49:48;;;;;;;31.63;11.02;;;;;;;;;;4804563;29;20055;-82
2023/03/26 04:52:36;;;;;;;28.65;10.82;;;;;;;;;;4804699;29;20058;-83
2023/03/26 04:56:20;;;;;;;41.58;16.67;;;;;;;;;;4747099;30;20056;-81
2023/03/26 04:59:33;;;;;;;25.02;12.75;;;;;;;;;;4834577;29;20054;-82
2023/03/26 05:02:21;;;;;;;19.70;9.45;;;;;;;;;;4803739;29;20055;-83
2023/03/26 05:05:11;;;;;;;13.07;7.35;;;;;;;;;;4818258;29;20049;-82
2023/03/26 05:07:58;;;;;;;13.68;6.55;;;;;;;;;;4827422;29;20054;-81
2023/03/26 05:10:43;;;;;;;19.13;6.55;;;;;;;;;;4804594;29;20050;-80
2023/03/26 05:13:38;;;;;;;13.57;7.50;;;;;;;;;;4824047;29;20041;-81
2023/03/26 05:16:28;;;;;;;19.77;10.07;;;;;;;;;;4807412;29;20059;-81
2023/03/26 05:19:18;;;;;;;26.15;11.57;;;;;;;;;;4812677;29;20051;-81
2023/03/26 05:22:04;;;;;;;21.17;10.73;;;;;;;;;;4818131;29;20055;-82
2023/03/26 05:24:55;;;;;;;25.42;10.50;;;;;;;;;;4817860;29;20054;-82
2023/03/26 05:27:40;;;;;;;24.58;9.93;;;;;;;;;;4807370;29;20046;-80
2023/03/26 05:30:26;;;;;;;17.75;7.30;;;;;;;;;;4812586;29;20061;-81
2023/03/26 05:33:16;;;;;;;9.52;5.97;;;;;;;;;;4810743;29;20059;-81
2023/03/26 05:36:14;;;;;;;8.32;5.25;;;;;;;;;;4821479;29;20049;-80
2023/03/26 05:39:03;;;;;;;9.48;6.28;;;;;;;;;;4808709;29;20058;-81
2023/03/26 05:42:26;;;;;;;15.57;6.43;;;;;;;;;;4819961;29;20054;-80
2023/03/26 05:45:26;;;;;;;7.60;5.22;;;;;;;;;;4806527;29;20485;-80
2023/03/26 05:48:12;;;;;;;6.05;4.57;;;;;;;;;;4805677;29;20465;-80
2023/03/26 05:50:58;;;;;;;7.03;4.97;;;;;;;;;;4810350;29;20047;-80
2023/03/26 05:53:46;;;;;;;19.58;8.73;;;;;;;;;;4812089;29;20477;-80
2023/03/26 05:56:50;;;;;;;18.58;10.20;;;;;;;;;;4818901;29;20038;-80
2023/03/26 05:59:54;;;;;;;22.90;10.00;;;;;;;;;;4807376;29;20050;-82
2023/03/26 06:02:59;;;;;;;16.58;9.45;;;;;;;;;;4807346;29;20432;-82
2023/03/26 06:06:08;;;;;;;16.15;8.23;;;;;;;;;;4817333;29;20404;-81
2023/03/26 06:09:00;;;;;;;15.65;9.10;;;;;;;;;;4806620;29;20058;-81
2023/03/26 06:11:46;;;;;;;15.48;8.15;;;;;;;;;;4806359;29;20066;-81
2023/03/26 06:14:31;;;;;;;10.43;6.00;;;;;;;;;;4806716;29;20061;-82
2023/03/26 06:17:25;;;;;;;9.45;5.80;;;;;;;;;;4825060;29;20055;-80
2023/03/26 06:20:31;;;;;;;8.35;5.78;;;;;;;;;;4806108;29;20042;-80
2023/03/26 06:23:18;;;;;;;10.88;6.43;;;;;;;;;;4805669;29;20059;-80
2023/03/26 06:26:32;;;;;;;11.18;7.80;;;;;;;;;;4806444;29;20050;-80
2023/03/26 06:29:37;;;;;;;10.70;6.65;;;;;;;;;;4819555;29;20419;-81
2023/03/26 06:32:49;;;;;;;9.05;6.13;;;;;;;;;;4799890;29;20046;-82
2023/03/26 06:35:41;;;;;;;16.00;9.48;;;;;;;;;;4806256;29;20046;-82
2023/03/26 06:38:27;;;;;;;15.25;11.02;;;;;;;;;;4824712;29;20043;-81
2023/03/26 06:41:13;;;;;;;10.98;7.57;;;;;;;;;;4805968;29;20058;-81
2023/03/26 06:44:18;;;;;;;10.63;5.43;;;;;;;;;;4818796;29;20492;-81
2023/03/26 06:47:24;;;;;;;8.70;5.82;;;;;;;;;;4816039;29;20058;-80
2023/03/26 06:50:28;;;;;;;9.93;5.95;;;;;;;;;;4813806;29;20504;-81
2023/03/26 06:53:43;;;;;;;;;;;;;;;;;;4803923;29;20500;-81
2023/03/26 06:56:43;;;;;;;11.02;6.07;;;;;;;;;;4805594;29;20367;-82
2023/03/26 06:59:44;;;;;;;8.63;5.80;;;;;;;;;;4805198;29;20051;-82
2023/03/26 07:02:48;;;;;;;6.30;3.57;;;;;;;;;;4813262;29;20095;-81
2023/03/26 07:05:51;;;;;;;6.90;3.80;;;;;;;;;;4802108;29;20042;-82
2023/03/26 07:08:56;;;;;;;8.32;3.88;;;;;;;;;;4813166;29;20050;-82
2023/03/26 07:12:00;;;;;;;6.60;3.77;;;;;;;;;;4818243;29;20405;-81
2023/03/26 07:15:20;;;;;;;4.60;2.50;;;;;;;;;;4773637;30;20267;-83
2023/03/26 07:18:17;;;;;;;4.82;1.88;;;;;;;;;;4812598;29;20055;-81
2023/03/26 07:21:04;;;;;;;11.68;5.82;;;;;;;;;;4805786;29;20050;-80
2023/03/26 07:23:52;;;;;;;14.73;6.68;;;;;;;;;;4805030;29;20051;-81
2023/03/26 07:27:43;;;;;;;8.05;5.10;;;;;;;;;;4815806;29;20042;-82
2023/03/26 07:30:51;;;;;;;6.28;3.88;;;;;;;;;;4805630;29;20080;-82
2023/03/26 07:34:03;;;;;;;6.50;3.50;;;;;;;;;;4811797;29;20055;-81
2023/03/26 07:37:07;;;;;;;12.50;7.30;;;;;;;;;;4824247;29;20050;-81
2023/03/26 07:40:37;;;;;;;18.63;7.15;;;;;;;;;;4804955;29;20476;-80
2023/03/26 07:43:57;;;;;;;7.05;4.57;;;;;;;;;;4808554;29;20054;-81
2023/03/26 07:47:07;;;;;;;8.75;5.28;;;;;;;;;;4829565;29;20049;-81
2023/03/26 07:50:18;;;;;;;11.30;5.82;;;;;;;;;;4797803;29;20054;-81
2023/03/26 07:53:19;;;;;;;5.97;3.83;;;;;;;;;;4811981;29;20055;-81
2023/03/26 07:56:41;;;;;;;6.97;4.35;;;;;;;;;;4804331;29;20058;-81
2023/03/26 08:00:08;;;;;;;5.65;3.55;;;;;;;;;;4798454;29;20043;-83
2023/03/26 08:03:27;;;;;;;4.63;2.70;;;;;;;;;;4829671;29;20053;-81
2023/03/26 08:06:32;;;;;;;6.88;2.95;;;;;;;;;;4822624;29;20050;-81
2023/03/26 08:09:38;;;;;;;5.65;3.15;;;;;;;;;;4804054;29;20051;-82
2023/03/26 08:13:20;;;;;;;8.35;3.60;;;;;;;;;;4812352;29;20047;-81
2023/03/26 08:16:22;;;;;;;5.38;3.30;;;;;;;;;;4835263;29;20050;-80
2023/03/26 08:19:17;;;;;;;5.55;3.10;;;;;;;;;;4829611;29;20055;-82
2023/03/26 08:22:08;;;;;;;6.40;4.40;;;;;;;;;;4812273;29;20062;-82
2023/03/26 08:25:18;;;;;;;5.72;3.55;;;;;;;;;;4812184;29;20058;-82
2023/03/26 08:28:36;;;;;;;8.18;3.40;;;;;;;;;;4812415;29;20050;-81
2023/03/26 08:31:48;;;;;;;5.72;2.75;;;;;;;;;;4799604;29;20046;-83
2023/03/26 08:34:34;;;;;;;4.38;2.58;;;;;;;;;;4817932;29;20051;-83
2023/03/26 08:37:19;;;;;;;7.57;2.97;;;;;;;;;;4798012;29;20492;-82
2023/03/26 08:40:06;;;;;;;4.45;2.95;;;;;;;;;;4819709;29;20404;-82
2023/03/26 08:43:10;;;;;;;2.35;1.65;;;;;;;;;;4816413;29;20318;-83
2023/03/26 08:46:23;;;;;;;3.35;1.98;;;;;;;;;;4830790;29;20087;-82
2023/03/26 08:49:30;;;;;;;3.53;2.35;;;;;;;;;;4832959;29;20055;-84
2023/03/26 08:52:28;;;;;;;9.40;2.97;;;;;;;;;;4801439;29;20046;-82
2023/03/26 08:55:29;;;;;;;4.93;2.90;;;;;;;;;;4825213;29;20495;-83
2023/03/26 08:58:42;;;;;;;5.15;2.92;;;;;;;;;;4831828;29;20488;-82
2023/03/26 09:02:01;;;;;;;5.65;2.85;;;;;;;;;;4814217;29;20046;-84
2023/03/26 09:05:19;;;;;;;6.97;2.67;;;;;;;;;;4815254;29;20058;-82
2023/03/26 09:08:41;;;;;;;4.03;2.03;;;;;;;;;;4815251;29;20918;-82
2023/03/26 09:11:45;;;;;;;3.17;1.88;;;;;;;;;;4815048;29;20046;-83
2023/03/26 09:14:39;;;;;;;3.80;1.85;;;;;;;;;;4815441;29;20042;-83
2023/03/26 09:17:27;;;;;;;2.88;2.00;;;;;;;;;;4807921;29;20042;-82
2023/03/26 09:20:28;;;;;;;4.25;1.30;;;;;;;;;;4807406;29;20051;-82
2023/03/26 09:23:35;;;;;;;2.80;1.50;;;;;;;;;;4831870;29;20037;-82
2023/03/26 09:26:49;;;;;;;1.48;0.90;;;;;;;;;;4831672;29;21276;-81
2023/03/26 09:30:05;;;;;;;1.35;0.90;;;;;;;;;;4807525;29;20412;-80
2023/03/26 09:33:10;;;;;;;;;;;;;;;;;;4825727;29;20050;-83
2023/03/26 09:36:43;;;;;;;2.25;1.05;;;;;;;;;;4825964;29;19925;-82
2023/03/26 09:40:06;;;;;;;1.30;0.90;;;;;;;;;;4810645;29;20043;-81
2023/03/26 09:43:14;;;;;;;5.50;1.23;;;;;;;;;;4812581;29;20493;-83
2023/03/26 09:46:02;;;;;;;3.53;1.10;;;;;;;;;;4812392;29;20054;-81
2023/03/26 09:49:14;;;;;;;2.42;0.85;;;;;;;;;;4820172;29;20046;-82
2023/03/26 09:52:33;;;;;;;1.27;0.90;;;;;;;;;;4830706;29;20046;-83
2023/03/26 09:55:49;;;;;;;1.17;0.38;;;;;;;;;;4801107;29;20055;-81
2023/03/26 09:58:48;;;;;;;;;;;;;;;;;;4831033;29;20058;-80
2023/03/26 10:01:36;;;;;;;3.00;1.27;;;;;;;;;;4830931;29;19921;-81
2023/03/26 10:04:58;;;;;;;0.50;0.50;;;;;;;;;;4819222;29;20530;-81
2023/03/26 10:07:49;;;;;;;2.05;0.88;;;;;;;;;;4808787;29;20450;-83
2023/03/26 10:10:53;;;;;;;3.45;1.00;;;;;;;;;;4813455;29;20057;-81
2023/03/26 10:13:58;;;;;;;0.73;0.50;;;;;;;;;;4809741;29;20050;-81
2023/03/26 10:17:10;;;;;;;1.58;1.00;;;;;;;;;;4812019;29;20505;-81
2023/03/26 10:20:27;;;;;;;0.57;0.57;;;;;;;;;;4824054;29;20041;-80
2023/03/26 10:23:35;;;;;;;2.33;0.80;;;;;;;;;;4812255;29;20114;-79
2023/03/26 10:26:50;;;;;;;1.55;0.68;;;;;;;;;;4798228;29;20046;-78
2023/03/26 10:30:20;;;;;;;1.35;0.80;;;;;;;;;;4818363;29;20816;-80
2023/03/26 10:33:27;;;;;;;5.32;1.88;;;;;;;;;;4819686;29;20046;-80
2023/03/26 10:36:18;;;;;;;2.88;0.98;;;;;;;;;;4828904;29;20046;-81
2023/03/26 10:39:14;;;;;;;7.50;1.15;;;;;;;;;;4821821;29;20480;-81
2023/03/26 10:42:30;;;;;;;1.70;0.90;;;;;;;;;;4815770;29;20061;-82
2023/03/26 10:45:29;;;;;;;1.55;0.88;;;;;;;;;;4828676;29;20062;-80
2023/03/26 10:48:27;;;;;;;1.00;0.60;;;;;;;;;;4814768;29;20493;-82
2023/03/26 10:51:41;;;;;;;1.27;0.80;;;;;;;;;;4803660;29;20058;-82
2023/03/26 10:54:38;;;;;;;2.83;1.15;;;;;;;;;;4810630;29;20047;-83
2023/03/26 10:57:47;;;;;;;4.78;1.50;;;;;;;;;;4819601;29;20061;-81
2023/03/26 11:00:38;;;;;;;1.52;1.00;;;;;;;;;;4812104;29;20047;-83
2023/03/26 11:04:04;;;;;;;2.42;1.25;;;;;;;;;;4811653;29;20050;-82
2023/03/26 11:07:02;;;;;;;6.80;2.47;;;;;;;;;;4797045;29;20404;-82
2023/03/26 11:10:15;;;;;;;9.38;3.78;;;;;;;;;;4796649;29;20042;-81
2023/03/26 11:13:38;;;;;;;3.95;1.20;;;;;;;;;;4803043;29;20070;-83
2023/03/26 11:16:47;;;;;;;2.72;1.00;;;;;;;;;;4797192;29;20046;-83
2023/03/26 11:20:01;;;;;;;4.47;2.58;;;;;;;;;;4820481;29;20495;-82
2023/03/26 11:23:31;;;;;;;3.60;1.40;;;;;;;;;;4827890;29;20054;-83
2023/03/26 11:26:30;;;;;;;2.50;1.38;;;;;;;;;;4797069;29;20387;-79
2023/03/26 11:29:21;;;;;;;3.60;1.20;;;;;;;;;;4827823;29;20050;-82
2023/03/26 11:32:11;;;;;;;1.60;1.17;;;;;;;;;;4827438;29;20049;-81
2023/03/26 11:34:59;;;;;;;8.25;1.17;;;;;;;;;;4820103;29;20050;-81
2023/03/26 11:37:50;;;;;;;2.45;1.13;;;;;;;;;;4802928;29;20046;-84
2023/03/26 11:40:40;;;;;;;2.08;1.10;;;;;;;;;;4797128;29;20039;-82
2023/03/26 11:43:34;;;;;;;2.13;1.17;;;;;;;;;;4819828;29;20054;-80
2023/03/26 11:46:22;;;;;;;2.17;1.10;;;;;;;;;;4827465;29;20396;-84
2023/03/26 11:49:10;;;;;;;3.25;1.35;;;;;;;;;;4802691;29;20055;-82
2023/03/26 11:51:55;;;;;;;2.30;1.08;;;;;;;;;;4796652;29;20046;-82
2023/03/26 11:54:42;;;;;;;2.17;1.15;;;;;;;;;;4810352;29;20046;-82
2023/03/26 11:57:34;;;;;;;1.63;0.90;;;;;;;;;;4827624;29;20053;-82
2023/03/26 12:00:26;;;;;;;1.80;1.20;;;;;;;;;;4810709;29;20050;-85
2023/03/26 12:03:14;;;;;;;2.25;1.30;;;;;;;;;;4799723;29;20069;-81
2023/03/26 12:06:01;;;;;;;3.53;1.10;;;;;;;;;;4812021;29;20381;-81
2023/03/26 12:08:48;;;;;;;3.42;1.55;;;;;;;;;;4829349;29;20058;-79
2023/03/26 12:11:34;;;;;;;1.83;1.10;;;;;;;;;;4820997;29;20049;-77
2023/03/26 12:14:25;;;;;;;1.33;0.88;;;;;;;;;;4828983;29;20046;-77
2023/03/26 12:17:26;;;;;;;5.18;1.33;;;;;;;;;;4816312;29;20062;-78
2023/03/26 12:20:23;;;;;;;3.63;1.10;;;;;;;;;;4830230;29;20046;-79
2023/03/26 12:23:42;;;;;;;1.25;0.90;;;;;;;;;;4818404;29;20058;-78
2023/03/26 12:26:35;;;;;;;6.68;1.92;;;;;;;;;;4835551;29;20046;-78
2023/03/26 12:29:19;;;;;;;3.30;1.20;;;;;;;;;;4822385;29;20053;-78
2023/03/26 12:32:14;;;;;;;6.32;1.05;;;;;;;;;;4818112;29;20055;-80
2023/03/26 12:35:06;;;;;;;3.05;0.95;;;;;;;;;;4834980;29;20415;-79
2023/03/26 12:37:53;;;;;;;1.42;0.80;;;;;;;;;;4821644;29;20050;-79
2023/03/26 12:40:41;;;;;;;1.80;0.63;;;;;;;;;;4817753;29;20046;-78
2023/03/26 12:43:41;;;;;;;2.60;1.13;;;;;;;;;;4818227;29;20055;-79
2023/03/26 12:46:31;;;;;;;2.20;0.63;;;;;;;;;;4820732;29;20053;-79
2023/03/26 12:49:17;;;;;;;0.50;0.50;;;;;;;;;;4834804;29;20061;-78
2023/03/26 12:52:37;;;;;;;1.45;0.70;;;;;;;;;;4813060;29;20046;-78
2023/03/26 12:55:41;;;;;;;3.60;0.75;;;;;;;;;;4834500;29;20054;-79
2023/03/26 12:58:32;;;;;;;0.65;0.63;;;;;;;;;;4827388;29;20046;-78
2023/03/26 13:02:02;;;;;;;1.35;0.57;;;;;;;;;;4817920;29;20047;-80
2023/03/26 13:05:00;;;;;;;3.70;1.40;;;;;;;;;;4839632;29;20054;-79
2023/03/26 13:08:04;;;;;;;1.83;1.10;;;;;;;;;;4818200;29;20059;-79
2023/03/26 13:11:19;;;;;;;0.97;0.77;;;;;;;;;;4817823;29;20042;-79
2023/03/26 13:14:08;;;;;;;1.98;0.90;;;;;;;;;;4805092;29;20062;-78
2023/03/26 13:17:10;;;;;;;2.28;1.50;;;;;;;;;;4817181;29;20059;-78
2023/03/26 13:20:21;;;;;;;1.63;0.90;;;;;;;;;;4817855;29;20404;-79
2023/03/26 13:23:29;;;;;;;1.60;0.80;;;;;;;;;;4834576;29;20053;-78
2023/03/26 13:26:29;;;;;;;1.75;1.00;;;;;;;;;;4834947;29;20042;-78
2023/03/26 13:29:36;;;;;;;1.40;1.00;;;;;;;;;;4818394;29;20047;-79
2023/03/26 13:33:04;;;;;;;1.13;0.80;;;;;;;;;;4833005;29;20047;-79
2023/03/26 13:35:59;;;;;;;2.08;1.10;;;;;;;;;;4831367;29;20046;-79
2023/03/26 13:38:44;;;;;;;2.28;0.80;;;;;;;;;;4831878;29;20484;-78
2023/03/26 13:41:50;;;;;;;1.70;1.00;;;;;;;;;;4814538;29;20054;-79
2023/03/26 13:44:52;;;;;;;2.92;1.70;;;;;;;;;;4819725;29;20054;-80
2023/03/26 13:47:45;;;;;;;1.52;0.90;;;;;;;;;;4814955;29;20054;-79
2023/03/26 13:50:34;;;;;;;2.65;1.55;;;;;;;;;;4830728;29;20062;-77
2023/03/26 13:53:26;;;;;;;1.20;1.00;;;;;;;;;;4831615;29;20046;-78
2023/03/26 13:56:16;;;;;;;1.25;1.02;;;;;;;;;;4824540;29;20065;-79
2023/03/26 13:59:07;;;;;;;5.28;2.78;;;;;;;;;;4811678;29;20480;-78
2023/03/26 14:01:59;;;;;;;1.95;1.08;;;;;;;;;;4806644;29;20050;-81
2023/03/26 14:04:48;;;;;;;1.73;1.00;;;;;;;;;;4814347;29;20050;-79
2023/03/26 14:07:41;;;;;;;1.48;0.90;;;;;;;;;;4814460;29;20062;-78
2023/03/26 14:10:35;;;;;;;1.98;1.00;;;;;;;;;;4814612;29;20050;-77
2023/03/26 14:13:45;;;;;;;2.63;1.60;;;;;;;;;;4800506;29;20043;-78
2023/03/26 14:16:37;;;;;;;1.85;1.15;;;;;;;;;;4814486;29;20043;-79
2023/03/26 14:19:53;;;;;;;3.15;1.25;;;;;;;;;;4829566;29;20038;-80
2023/03/26 14:23:13;;;;;;;1.60;1.10;;;;;;;;;;4831434;29;20057;-81
2023/03/26 14:26:36;;;;;;;3.33;1.08;;;;;;;;;;4769931;30;20094;-80
2023/03/26 14:29:39;;;;;;;1.58;0.70;;;;;;;;;;4814248;29;20055;-80
2023/03/26 14:32:49;;;;;;;3.38;1.40;;;;;;;;;;4800668;29;20050;-78
2023/03/26 14:36:00;;;;;;;2.95;1.15;;;;;;;;;;4816343;29;20050;-80
2023/03/26 14:39:22;;;;;;;1.83;1.13;;;;;;;;;;4806439;29;20409;-80
2023/03/26 14:42:28;;;;;;;1.85;0.80;;;;;;;;;;4813595;29;20054;-80
2023/03/26 14:45:52;;;;;;;1.75;0.70;;;;;;;;;;4799176;29;20485;-81
2023/03/26 14:48:48;;;;;;;1.63;0.90;;;;;;;;;;4791984;29;20046;-80
2023/03/26 14:51:56;;;;;;;2.67;1.30;;;;;;;;;;4813263;29;20047;-80
2023/03/26 14:54:47;;;;;;;1.88;1.10;;;;;;;;;;4818166;29;20058;-80
2023/03/26 14:57:51;;;;;;;1.92;1.10;;;;;;;;;;4813701;29;20058;-80
2023/03/26 15:01:13;;;;;;;1.48;1.00;;;;;;;;;;4813088;29;20043;-81
2023/03/26 15:04:10;;;;;;;2.10;1.25;;;;;;;;;;4818349;29;20046;-80
2023/03/26 15:07:00;;;;;;;1.70;1.30;;;;;;;;;;4806058;29;20046;-80
2023/03/26 15:10:14;;;;;;;2.05;1.00;;;;;;;;;;4812805;29;20046;-81
2023/03/26 15:13:25;;;;;;;1.45;1.10;;;;;;;;;;4813240;29;20047;-80
2023/03/26 15:16:29;;;;;;;3.33;1.38;;;;;;;;;;4805330;29;20054;-84
2023/03/26 15:19:49;;;;;;;2.38;1.38;;;;;;;;;;4801108;29;20050;-78
2023/03/26 15:22:38;;;;;;;2.70;1.40;;;;;;;;;;4812778;29;20051;-79
2023/03/26 15:26:13;;;;;;;3.13;1.20;;;;;;;;;;4798681;29;20058;-79
2023/03/26 15:29:02;;;;;;;2.78;1.42;;;;;;;;;;4816982;29;20051;-79
2023/03/26 15:32:06;;;;;;;2.40;1.40;;;;;;;;;;4813097;29;20404;-79
2023/03/26 15:35:08;;;;;;;2.42;1.33;;;;;;;;;;4801664;29;20047;-80
2023/03/26 15:38:27;;;;;;;5.75;3.28;;;;;;;;;;4795419;29;20054;-79
2023/03/26 15:41:20;;;;;;;4.20;2.20;;;;;;;;;;4805320;29;20055;-79
2023/03/26 15:44:26;;;;;;;5.57;2.70;;;;;;;;;;4812776;29;20396;-79
2023/03/26 15:47:46;;;;;;;16.20;2.90;;;;;;;;;;4820084;29;20054;-80
2023/03/26 15:50:54;;;;;;;5.90;2.80;;;;;;;;;;4810084;29;20058;-79
2023/03/26 15:53:48;;;;;;;8.93;3.80;;;;;;;;;;4821941;29;20046;-80
2023/03/26 15:56:53;;;;;;;8.00;3.90;;;;;;;;;;4829142;29;20034;-81
2023/03/26 16:00:14;;;;;;;7.73;4.67;;;;;;;;;;4798972;29;20047;-81
2023/03/26 16:03:25;;;;;;;11.27;6.50;;;;;;;;;;4817108;29;20050;-79
2023/03/26 16:06:29;;;;;;;15.32;5.93;;;;;;;;;;4803296;29;20105;-80
2023/03/26 16:09:47;;;;;;;27.15;9.40;;;;;;;;;;4815649;29;20047;-80
2023/03/26 16:12:45;;;;;;;20.42;7.82;;;;;;;;;;4822194;29;20062;-80
2023/03/26 16:15:32;;;;;;;20.38;7.78;;;;;;;;;;4822602;29;20038;-80
2023/03/26 16:18:26;;;;;;;23.25;8.15;;;;;;;;;;4818762;29;20049;-80
2023/03/26 16:21:25;;;;;;;126.47;54.17;;;;;;;;;;4813898;29;20046;-80
2023/03/26 16:24:19;;;;;;;59.13;29.45;;;;;;;;;;4799024;29;20061;-79
2023/03/26 16:27:08;;;;;;;108.63;46.08;;;;;;;;;;4818805;29;20055;-80
2023/03/26 16:30:11;;;;;;;72.50;36.88;;;;;;;;;;4819913;29;20489;-79
2023/03/26 16:33:11;;;;;;;101.55;47.30;;;;;;;;;;4815853;29;20050;-81
2023/03/26 16:36:17;;;;;;;17.92;12.32;;;;;;;;;;4818729;29;20055;-80
2023/03/26 16:39:06;;;;;;;12.52;7.68;;;;;;;;;;4818329;29;20054;-80
2023/03/26 16:42:24;;;;;;;15.43;8.02;;;;;;;;;;4816758;29;20055;-80
2023/03/26 16:45:17;;;;;;;18.63;11.77;;;;;;;;;;4776833;29;20051;-80
2023/03/26 16:48:29;;;;;;;81.18;41.65;;;;;;;;;;4811585;29;20057;-80
2023/03/26 16:51:48;;;;;;;29.80;16.77;;;;;;;;;;4820441;29;20045;-79
2023/03/26 16:54:45;;;;;;;24.60;15.00;;;;;;;;;;4804145;29;20489;-80
2023/03/26 16:57:43;;;;;;;32.95;16.88;;;;;;;;;;4821731;29;20049;-80
2023/03/26 17:00:32;;;;;;;24.02;12.75;;;;;;;;;;4828386;29;20042;-79
2023/03/26 17:03:26;;;;;;;26.13;14.43;;;;;;;;;;4807612;29;20050;-80
2023/03/26 17:06:24;;;;;;;21.17;11.85;;;;;;;;;;4804758;29;20051;-81
2023/03/26 17:09:23;;;;;;;24.63;13.20;;;;;;;;;;4823695;29;20050;-79
2023/03/26 17:12:18;;;;;;;36.10;18.15;;;;;;;;;;4832353;29;20058;-80
2023/03/26 17:15:31;;;;;;;68.47;35.33;;;;;;;;;;4828240;29;20043;-80
2023/03/26 17:18:29;;;;;;;467.67;177.13;;;;;;;;;;4815262;29;20054;-80
2023/03/26 17:21:32;;;;;;;404.35;154.32;;;;;;;;;;4831621;29;20500;-78
2023/03/26 17:24:26;;;;;;;415.67;151.20;;;;;;;;;;4800964;29;20050;-80
2023/03/26 17:28:09;;;;;;;292.60;112.53;;;;;;;;;;4837799;29;20050;-79
2023/03/26 17:31:10;;;;;;;248.88;106.38;;;;;;;;;;4801928;29;20114;-80
2023/03/26 17:34:34;;;;;;;302.13;120.97;;;;;;;;;;4814709;29;20051;-79
2023/03/26 17:37:22;;;;;;;137.20;62.05;;;;;;;;;;4815841;29;20051;-79
2023/03/26 17:40:42;;;;;;;50.58;24.35;;;;;;;;;;4828257;29;20445;-80
2023/03/26 17:43:35;;;;;;;43.85;15.43;;;;;;;;;;4807188;29;20051;-80
2023/03/26 17:46:40;;;;;;;42.83;16.92;;;;;;;;;;4812140;29;20050;-80